Aviation Digital Data Service (ADDS)

Output produced by METARs form (1134 UTC 22 January 2022)
found at http://aviationweather.gov/metar/data/
 
METAR text: FAPE 221100Z 08023G36KT CAVOK 26/19 Q1021 NOSIG
Conditions at: FAPE (PORT ELIZABETH , ZA) observed 1100 UTC 22 January 2022
Temperature: 26.0°C (79°F)
Dewpoint: 19.0°C (66°F) [RH = 65%]
Pressure (altimeter): 30.15 inches Hg (1021.0 mb)
Winds: from the E (80 degrees) at 26 MPH (23 knots; 11.8 m/s)
gusting to 41 MPH (36 knots; 18.5 m/s)
Visibility: 6 or more miles (10+ km)
Ceiling: ceiling and visibility are OK
Clouds: unknown
Weather: no significant weather observed at this time

Forecast for: FAPE (PORT ELIZABETH , ZA)
Text: TAF FAPE 221000Z 2212/2312 08025G35KT CAVOK TX27/2310Z TN20/2302Z
Forecast period: 1200 UTC 22 January 2022 to 0500 UTC 23 January 2022
Forecast type: FROM: standard forecast or significant change
Winds: from the E (80 degrees) at 29 MPH (25 knots; 12.9 m/s)
gusting to 40 MPH (35 knots; 18.0 m/s)
Visibility: 6 or more miles (10+ km)
Ceiling: unknown
Clouds: missing
Weather: no significant weather forecast for this period
Text: BECMG 2305/2307 09019KT
Forecast period: 0500 to 1200 UTC 23 January 2022
Forecast type: BECOMING: Conditions expected to become as follows by 0700 UTC 23 January 2022
Winds: from the E (90 degrees) at 22 MPH (19 knots; 9.8 m/s)
Visibility: 6 or more miles (10+ km)
Ceiling: unknown
Clouds: missing
Weather: no significant weather forecast for this period